TOM888 ESSA-LOWS
Flight info
| Callsign | TOM888 |
|---|---|
| Flight time | N/A |
| Altitude | 36000 |
| Route | NOSLI N850 ABAMA DCT BIKRU DCT UNRIG DCT MAREM DCT VESUB T106 NETES T700 BADIT |
| Aircraft | B738/M-SDE2E3FGHIRWXY/LB1 |
Departure
| Time | 2026-05-05 16:16 |
|---|---|
| Airport | Stockholm-Arlanda Airport (ESSA) |
Arrival
| Time | N/A |
|---|---|
| Airport | Salzburg Airport (LOWS) |
| Time | Latitude | Longitude | Altitude | Speed | Heading |
|---|---|---|---|---|---|
| 2026-05-05 15:37 | 59.65147 | 17.92699 | 110 ft | 0 kts | 190° |
| 2026-05-05 15:59 | 59.65155 | 17.92702 | 111 ft | 4 kts | 191° |
| 2026-05-05 16:00 | 59.65182 | 17.92711 | 111 ft | 4 kts | 191° |
| 2026-05-05 16:00 | 59.65208 | 17.92721 | 111 ft | 4 kts | 191° |
| 2026-05-05 16:00 | 59.65235 | 17.92731 | 109 ft | 4 kts | 191° |
| 2026-05-05 16:00 | 59.65253 | 17.92738 | 108 ft | 0 kts | 191° |
| 2026-05-05 16:04 | 59.65252 | 17.92738 | 108 ft | 1 kts | 192° |
| 2026-05-05 16:05 | 59.65242 | 17.92681 | 110 ft | 9 kts | 283° |
| 2026-05-05 16:05 | 59.65265 | 17.92559 | 111 ft | 9 kts | 289° |
| 2026-05-05 16:05 | 59.65264 | 17.92437 | 110 ft | 10 kts | 232° |
| 2026-05-05 16:05 | 59.65192 | 17.92381 | 111 ft | 13 kts | 192° |
| 2026-05-05 16:06 | 59.65089 | 17.92342 | 111 ft | 17 kts | 190° |
| 2026-05-05 16:06 | 59.64960 | 17.92296 | 111 ft | 20 kts | 190° |
| 2026-05-05 16:06 | 59.64823 | 17.92247 | 111 ft | 20 kts | 189° |
| 2026-05-05 16:06 | 59.64690 | 17.92199 | 111 ft | 19 kts | 192° |
| 2026-05-05 16:07 | 59.64562 | 17.92152 | 111 ft | 18 kts | 189° |
| 2026-05-05 16:07 | 59.64453 | 17.92112 | 111 ft | 12 kts | 191° |
| 2026-05-05 16:07 | 59.64381 | 17.92086 | 113 ft | 11 kts | 190° |
| 2026-05-05 16:07 | 59.64333 | 17.91999 | 111 ft | 10 kts | 263° |
| 2026-05-05 16:08 | 59.64294 | 17.91891 | 112 ft | 11 kts | 198° |
| 2026-05-05 16:08 | 59.64205 | 17.91855 | 113 ft | 15 kts | 189° |
| 2026-05-05 16:08 | 59.64085 | 17.91813 | 113 ft | 20 kts | 190° |
| 2026-05-05 16:08 | 59.63939 | 17.91760 | 110 ft | 22 kts | 190° |
| 2026-05-05 16:09 | 59.63805 | 17.91648 | 106 ft | 17 kts | 220° |
| 2026-05-05 16:09 | 59.63774 | 17.91595 | 104 ft | 0 kts | 220° |
| 2026-05-05 16:14 | 59.63729 | 17.91416 | 108 ft | 12 kts | 278° |
| 2026-05-05 16:15 | 59.63767 | 17.91338 | 109 ft | 0 kts | 10° |
| 2026-05-05 16:16 | 59.64133 | 17.91470 | 105 ft | 92 kts | 10° |
| 2026-05-05 16:16 | 59.66178 | 17.92197 | 854 ft | 169 kts | 4° |
| 2026-05-05 16:17 | 59.68545 | 17.92459 | 2526 ft | 185 kts | 339° |
| 2026-05-05 16:17 | 59.69500 | 17.90794 | 2991 ft | 192 kts | 291° |
| 2026-05-05 16:18 | 59.69317 | 17.85450 | 4268 ft | 200 kts | 263° |
| 2026-05-05 16:18 | 59.69128 | 17.82702 | 4894 ft | 203 kts | 264° |
| 2026-05-05 16:18 | 59.68735 | 17.77232 | 5013 ft | 202 kts | 256° |
| 2026-05-05 16:19 | 59.68296 | 17.74445 | 5175 ft | 225 kts | 253° |
| 2026-05-05 16:19 | 59.67781 | 17.71328 | 5534 ft | 248 kts | 253° |
| 2026-05-05 16:19 | 59.66126 | 17.65325 | 7134 ft | 262 kts | 219° |
| 2026-05-05 16:20 | 59.63056 | 17.61288 | 8861 ft | 268 kts | 216° |
| 2026-05-05 16:20 | 59.59907 | 17.57137 | 10311 ft | 283 kts | 217° |
| 2026-05-05 16:21 | 59.56353 | 17.52455 | 10702 ft | 330 kts | 217° |
| 2026-05-05 16:22 | 59.50317 | 17.44561 | 12519 ft | 352 kts | 218° |
| 2026-05-05 16:22 | 59.46220 | 17.39237 | 14074 ft | 354 kts | 219° |
| 2026-05-05 16:23 | 59.42152 | 17.33966 | 15669 ft | 350 kts | 220° |
| 2026-05-05 16:23 | 59.40124 | 17.31342 | 16475 ft | 348 kts | 220° |
| 2026-05-05 16:23 | 59.36085 | 17.26122 | 18003 ft | 347 kts | 220° |
| 2026-05-05 16:24 | 59.34068 | 17.23520 | 18629 ft | 348 kts | 220° |
| 2026-05-05 16:24 | 59.32037 | 17.20900 | 19062 ft | 351 kts | 220° |
| 2026-05-05 16:24 | 59.27890 | 17.15552 | 19775 ft | 365 kts | 220° |
| 2026-05-05 16:25 | 59.25766 | 17.12829 | 20369 ft | 365 kts | 220° |
| 2026-05-05 16:25 | 59.21491 | 17.07364 | 21360 ft | 370 kts | 220° |
| 2026-05-05 16:25 | 59.19329 | 17.04603 | 21798 ft | 373 kts | 220° |
| 2026-05-05 16:26 | 59.14950 | 16.99026 | 22718 ft | 379 kts | 220° |
| 2026-05-05 16:26 | 59.10505 | 16.93383 | 23565 ft | 384 kts | 220° |
| 2026-05-05 16:27 | 59.08291 | 16.90579 | 23922 ft | 386 kts | 220° |
| 2026-05-05 16:27 | 59.06033 | 16.87724 | 24244 ft | 388 kts | 219° |
| 2026-05-05 16:27 | 59.03758 | 16.84850 | 24526 ft | 392 kts | 219° |
| 2026-05-05 16:27 | 59.01463 | 16.81956 | 24854 ft | 395 kts | 219° |
| 2026-05-05 16:28 | 58.99152 | 16.79050 | 25222 ft | 396 kts | 219° |
| 2026-05-05 16:28 | 58.96838 | 16.76143 | 25586 ft | 398 kts | 219° |
| 2026-05-05 16:28 | 58.94507 | 16.73220 | 25897 ft | 400 kts | 219° |
| 2026-05-05 16:28 | 58.92164 | 16.70285 | 26242 ft | 402 kts | 219° |
| 2026-05-05 16:29 | 58.89808 | 16.67339 | 26547 ft | 404 kts | 219° |
| 2026-05-05 16:29 | 58.87438 | 16.64381 | 26861 ft | 406 kts | 219° |
| 2026-05-05 16:29 | 58.85059 | 16.61416 | 27178 ft | 408 kts | 219° |
| 2026-05-05 16:29 | 58.82702 | 16.58484 | 27493 ft | 409 kts | 219° |
| 2026-05-05 16:30 | 58.80309 | 16.55513 | 27817 ft | 409 kts | 219° |
| 2026-05-05 16:30 | 58.77913 | 16.52543 | 28155 ft | 410 kts | 219° |
| 2026-05-05 16:30 | 58.75516 | 16.49577 | 28567 ft | 409 kts | 219° |
| 2026-05-05 16:30 | 58.73128 | 16.46629 | 29035 ft | 407 kts | 219° |
| 2026-05-05 16:31 | 58.70749 | 16.43696 | 29476 ft | 405 kts | 219° |
| 2026-05-05 16:31 | 58.68377 | 16.40775 | 29889 ft | 405 kts | 219° |
| 2026-05-05 16:31 | 58.66008 | 16.37861 | 30242 ft | 404 kts | 219° |
| 2026-05-05 16:31 | 58.63640 | 16.34953 | 30573 ft | 404 kts | 219° |
| 2026-05-05 16:32 | 58.61309 | 16.32095 | 30887 ft | 403 kts | 219° |
| 2026-05-05 16:32 | 58.58944 | 16.29200 | 31204 ft | 403 kts | 219° |
| 2026-05-05 16:32 | 58.56582 | 16.26313 | 31482 ft | 402 kts | 219° |
| 2026-05-05 16:32 | 58.54219 | 16.23428 | 31714 ft | 404 kts | 219° |
| 2026-05-05 16:33 | 58.51843 | 16.20532 | 31950 ft | 405 kts | 218° |
| 2026-05-05 16:33 | 58.49467 | 16.17644 | 32303 ft | 404 kts | 218° |
| 2026-05-05 16:33 | 58.47101 | 16.14774 | 32678 ft | 402 kts | 218° |
| 2026-05-05 16:33 | 58.44743 | 16.11917 | 32988 ft | 402 kts | 218° |
| 2026-05-05 16:34 | 58.42384 | 16.09062 | 33268 ft | 402 kts | 218° |
| 2026-05-05 16:34 | 58.40023 | 16.06208 | 33577 ft | 401 kts | 218° |
| 2026-05-05 16:34 | 58.37671 | 16.03372 | 33894 ft | 400 kts | 218° |
| 2026-05-05 16:34 | 58.35353 | 16.00580 | 34130 ft | 400 kts | 218° |
| 2026-05-05 16:35 | 58.32993 | 15.97741 | 34285 ft | 402 kts | 218° |
| 2026-05-05 16:35 | 58.30626 | 15.94896 | 34383 ft | 404 kts | 218° |
| 2026-05-05 16:35 | 58.25838 | 15.89158 | 34666 ft | 408 kts | 218° |
| 2026-05-05 16:36 | 58.23439 | 15.86294 | 34924 ft | 407 kts | 218° |
| 2026-05-05 16:36 | 58.21041 | 15.83436 | 35108 ft | 408 kts | 218° |
| 2026-05-05 16:36 | 58.18634 | 15.80569 | 35249 ft | 409 kts | 217° |
| 2026-05-05 16:36 | 58.16219 | 15.77697 | 35416 ft | 410 kts | 217° |
| 2026-05-05 16:37 | 58.13833 | 15.74865 | 35625 ft | 410 kts | 217° |
| 2026-05-05 16:37 | 58.11412 | 15.71996 | 35826 ft | 410 kts | 217° |
| 2026-05-05 16:37 | 58.06542 | 15.66234 | 35857 ft | 415 kts | 217° |
| 2026-05-05 16:38 | 58.01660 | 15.60482 | 35883 ft | 413 kts | 217° |
| 2026-05-05 16:38 | 57.96438 | 15.55746 | 35888 ft | 424 kts | 202° |
| 2026-05-05 16:39 | 57.90706 | 15.52940 | 35891 ft | 426 kts | 201° |
| 2026-05-05 16:39 | 57.85002 | 15.50195 | 35886 ft | 426 kts | 201° |
| 2026-05-05 16:40 | 57.79268 | 15.47403 | 35888 ft | 426 kts | 201° |
| 2026-05-05 16:40 | 57.73534 | 15.44597 | 35885 ft | 426 kts | 201° |
| 2026-05-05 16:41 | 57.67804 | 15.41794 | 35880 ft | 426 kts | 201° |
| 2026-05-05 16:41 | 57.62078 | 15.39001 | 35883 ft | 425 kts | 201° |
| 2026-05-05 16:42 | 57.56349 | 15.36216 | 35882 ft | 425 kts | 201° |
| 2026-05-05 16:42 | 57.50664 | 15.33462 | 35877 ft | 425 kts | 201° |
| 2026-05-05 16:43 | 57.44941 | 15.30700 | 35881 ft | 425 kts | 201° |
| 2026-05-05 16:43 | 57.39216 | 15.27944 | 35882 ft | 425 kts | 200° |
| 2026-05-05 16:44 | 57.33487 | 15.25196 | 35885 ft | 425 kts | 200° |
| 2026-05-05 16:44 | 57.27762 | 15.22458 | 35882 ft | 425 kts | 200° |
| 2026-05-05 16:45 | 57.22030 | 15.19726 | 35873 ft | 425 kts | 200° |
| 2026-05-05 16:45 | 57.16327 | 15.17017 | 35887 ft | 426 kts | 200° |
| 2026-05-05 16:46 | 57.10570 | 15.14289 | 35884 ft | 428 kts | 200° |
| 2026-05-05 16:46 | 57.04797 | 15.11564 | 35883 ft | 429 kts | 200° |
| 2026-05-05 16:47 | 56.99011 | 15.08841 | 35863 ft | 430 kts | 200° |
| 2026-05-05 16:47 | 56.93253 | 15.06141 | 35876 ft | 430 kts | 200° |
| 2026-05-05 16:48 | 56.87450 | 15.03428 | 35887 ft | 431 kts | 200° |
| 2026-05-05 16:48 | 56.81634 | 15.00717 | 35885 ft | 432 kts | 200° |
| 2026-05-05 16:49 | 56.75811 | 14.98013 | 35887 ft | 432 kts | 200° |
| 2026-05-05 16:49 | 56.70027 | 14.95335 | 35881 ft | 432 kts | 199° |
| 2026-05-05 16:50 | 56.64205 | 14.92648 | 35888 ft | 431 kts | 199° |
| 2026-05-05 16:50 | 56.58387 | 14.89971 | 35892 ft | 431 kts | 199° |
| 2026-05-05 16:51 | 56.52575 | 14.87305 | 35889 ft | 431 kts | 199° |
| 2026-05-05 16:51 | 56.46762 | 14.84647 | 35871 ft | 430 kts | 199° |
| 2026-05-05 16:52 | 56.41000 | 14.82021 | 35882 ft | 430 kts | 199° |
| 2026-05-05 16:52 | 56.35194 | 14.79383 | 35895 ft | 430 kts | 199° |
| 2026-05-05 16:53 | 56.29387 | 14.76752 | 35891 ft | 430 kts | 199° |
| 2026-05-05 16:53 | 56.23577 | 14.74129 | 35890 ft | 431 kts | 199° |
| 2026-05-05 16:54 | 56.17798 | 14.71527 | 35885 ft | 431 kts | 199° |
| 2026-05-05 16:54 | 56.11975 | 14.68915 | 35896 ft | 431 kts | 199° |
| 2026-05-05 16:55 | 56.06148 | 14.66308 | 35891 ft | 432 kts | 199° |
| 2026-05-05 16:55 | 56.00368 | 14.63731 | 35893 ft | 433 kts | 199° |
| 2026-05-05 16:56 | 55.94671 | 14.61198 | 35878 ft | 433 kts | 198° |
| 2026-05-05 16:56 | 55.89665 | 14.58979 | 35886 ft | 433 kts | 198° |
| 2026-05-05 16:57 | 55.86713 | 14.57682 | 35891 ft | 434 kts | 198° |
| 2026-05-05 16:57 | 55.84433 | 14.56862 | 35874 ft | 437 kts | 193° |
| 2026-05-05 16:58 | 55.82243 | 14.56296 | 35864 ft | 436 kts | 195° |
| 2026-05-05 16:58 | 55.80097 | 14.55445 | 35947 ft | 433 kts | 196° |
| 2026-05-05 16:59 | 55.77962 | 14.54603 | 36021 ft | 432 kts | 190° |
| 2026-05-05 16:59 | 55.76815 | 14.54410 | 35757 ft | 439 kts | 192° |
| 2026-05-05 16:59 | 55.75692 | 14.54141 | 35667 ft | 438 kts | 195° |
| 2026-05-05 17:00 | 55.74592 | 14.53725 | 35856 ft | 429 kts | 201° |
| 2026-05-05 17:00 | 55.73207 | 14.52823 | 36237 ft | 413 kts | 210° |
| 2026-05-05 17:00 | 55.67871 | 14.49097 | 36073 ft | 430 kts | 200° |
| 2026-05-05 17:01 | 55.61985 | 14.46541 | 35954 ft | 438 kts | 197° |
| 2026-05-05 17:01 | 55.56044 | 14.44139 | 35912 ft | 437 kts | 197° |
| 2026-05-05 17:02 | 55.50143 | 14.41659 | 35897 ft | 435 kts | 198° |
| 2026-05-05 17:02 | 55.44318 | 14.39152 | 35887 ft | 433 kts | 199° |
| 2026-05-05 17:03 | 55.38486 | 14.36632 | 35899 ft | 430 kts | 199° |
| 2026-05-05 17:03 | 55.32690 | 14.34134 | 35905 ft | 428 kts | 199° |
| 2026-05-05 17:04 | 55.28385 | 14.32286 | 35904 ft | 427 kts | 199° |
| 2026-05-05 17:04 | 55.26244 | 14.31371 | 35905 ft | 426 kts | 199° |
| 2026-05-05 17:05 | 55.24211 | 14.30495 | 35911 ft | 425 kts | 199° |
| 2026-05-05 17:05 | 55.22179 | 14.29607 | 35905 ft | 425 kts | 199° |
| 2026-05-05 17:06 | 55.20167 | 14.28714 | 35898 ft | 425 kts | 199° |
| 2026-05-05 17:06 | 55.18115 | 14.27783 | 35878 ft | 424 kts | 200° |
| 2026-05-05 17:07 | 55.16027 | 14.26814 | 35846 ft | 424 kts | 200° |
| 2026-05-05 17:07 | 55.13987 | 14.25843 | 35824 ft | 424 kts | 200° |
| 2026-05-05 17:08 | 55.11886 | 14.24842 | 35821 ft | 425 kts | 198° |
| 2026-05-05 17:08 | 55.09826 | 14.24166 | 35747 ft | 431 kts | 191° |
| 2026-05-05 17:09 | 55.08747 | 14.24048 | 35615 ft | 438 kts | 185° |
| 2026-05-05 17:09 | 55.07596 | 14.24148 | 35510 ft | 444 kts | 179° |
| 2026-05-05 17:09 | 55.06801 | 14.24280 | 35663 ft | 436 kts | 183° |